createdAt,value
2023-03-17T00:00:44.473Z,2.90
2023-03-17T00:03:32.631Z,2.55
2023-03-17T00:06:00.395Z,1.98
2023-03-17T00:08:30.345Z,3.15
2023-03-17T00:10:57.721Z,2.20
2023-03-17T00:13:26.154Z,1.70
2023-03-17T00:15:56.954Z,2.70
2023-03-17T00:18:24.667Z,2.80
2023-03-17T00:20:52.524Z,1.90
2023-03-17T00:23:22.365Z,2.47
2023-03-17T00:25:51.728Z,2.10
2023-03-17T00:28:21.132Z,2.95
2023-03-17T00:30:55.755Z,1.62
2023-03-17T00:33:26.548Z,1.75
2023-03-17T00:35:55.339Z,2.03
2023-03-17T00:38:24.468Z,2.83
2023-03-17T00:40:52.012Z,2.58
2023-03-17T00:43:22.583Z,1.37
2023-03-17T00:45:51.116Z,2.05
2023-03-17T00:48:22.234Z,2.08
2023-03-17T00:50:50.954Z,1.85
2023-03-17T00:53:21.513Z,1.95
2023-03-17T00:55:49.224Z,2.42
2023-03-17T00:58:28.801Z,2.53
2023-03-17T01:00:56.948Z,1.52
2023-03-17T01:03:25.567Z,2.50
2023-03-17T01:05:54.273Z,2.20
2023-03-17T01:08:22.638Z,3.53
2023-03-17T01:10:50.315Z,1.48
2023-03-17T01:13:19.674Z,2.05
2023-03-17T01:15:48.611Z,1.87
2023-03-17T01:18:17.990Z,2.55
2023-03-17T01:20:45.780Z,1.17
2023-03-17T01:23:13.376Z,2.15
2023-03-17T01:25:42.789Z,1.70
2023-03-17T01:28:13.458Z,1.33
2023-03-17T01:30:41.357Z,2.08
2023-03-17T01:33:10.345Z,2.83
2023-03-17T01:35:38.518Z,1.67
2023-03-17T01:38:06.469Z,1.62
2023-03-17T01:40:43.071Z,1.42
2023-03-17T01:43:10.666Z,1.75
2023-03-17T01:46:16.037Z,1.90
2023-03-17T01:49:21.241Z,1.20
2023-03-17T01:52:10.088Z,1.55
2023-03-17T01:55:02.824Z,1.77
2023-03-17T01:57:34.505Z,3.22
2023-03-17T02:00:06.315Z,2.25
2023-03-17T02:02:43.849Z,1.65
2023-03-17T02:05:15.700Z,2.17
2023-03-17T02:07:43.331Z,3.08
2023-03-17T02:10:12.720Z,2.22
2023-03-17T02:12:42.268Z,2.08
2023-03-17T02:15:10.607Z,1.17
2023-03-17T02:17:39.550Z,1.50
2023-03-17T02:20:16.056Z,3.22
2023-03-17T02:22:44.895Z,1.60
2023-03-17T02:25:14.989Z,1.20
2023-03-17T02:27:46.301Z,1.35
2023-03-17T02:30:16.915Z,2.15
2023-03-17T02:32:44.443Z,1.95
2023-03-17T02:35:13.048Z,2.85
2023-03-17T02:37:43.592Z,1.00
2023-03-17T02:40:11.600Z,1.25
2023-03-17T02:42:42.030Z,1.00
2023-03-17T02:45:11.660Z,1.40
2023-03-17T02:47:39.417Z,2.35
2023-03-17T02:50:08.394Z,1.58
2023-03-17T02:52:36.492Z,1.12
2023-03-17T02:55:03.959Z,2.87
2023-03-17T02:57:31.536Z,1.40
2023-03-17T02:59:59.356Z,2.00
2023-03-17T03:02:27.096Z,1.73
2023-03-17T03:04:54.620Z,2.60
2023-03-17T03:07:22.850Z,0.90
2023-03-17T03:09:50.268Z,2.30
2023-03-17T03:12:17.841Z,2.50
2023-03-17T03:14:45.969Z,2.05
2023-03-17T03:17:13.496Z,1.77
2023-03-17T03:19:40.940Z,1.62
2023-03-17T03:22:09.236Z,1.17
2023-03-17T03:24:37.880Z,1.33
2023-03-17T03:27:05.354Z,1.90
2023-03-17T03:29:33.113Z,1.15
2023-03-17T03:32:00.796Z,1.52
2023-03-17T03:34:28.444Z,1.30
2023-03-17T03:36:56.261Z,2.83
2023-03-17T03:39:23.693Z,1.83
2023-03-17T03:41:51.137Z,1.25
2023-03-17T03:44:18.934Z,1.50
2023-03-17T03:46:46.498Z,1.40
2023-03-17T03:49:13.939Z,1.98
2023-03-17T03:51:41.676Z,1.42
2023-03-17T03:54:09.142Z,2.55
2023-03-17T03:56:36.505Z,2.50
2023-03-17T03:59:04.195Z,1.27
2023-03-17T04:01:31.587Z,1.73
2023-03-17T04:03:59.268Z,1.60
2023-03-17T04:06:26.748Z,1.58
2023-03-17T04:08:55.426Z,1.35
2023-03-17T04:11:24.097Z,3.80
2023-03-17T04:13:51.503Z,2.55
2023-03-17T04:16:19.009Z,2.37
2023-03-17T04:18:46.719Z,1.35
2023-03-17T04:21:18.405Z,2.55
2023-03-17T04:23:46.512Z,1.87
2023-03-17T04:26:14.509Z,1.35
2023-03-17T04:28:41.998Z,1.45
2023-03-17T04:31:12.355Z,1.55
2023-03-17T04:33:40.685Z,2.45
2023-03-17T04:36:09.433Z,2.15
2023-03-17T04:38:37.036Z,2.72
2023-03-17T04:41:04.819Z,1.67
2023-03-17T04:43:32.229Z,1.75
2023-03-17T04:45:59.637Z,2.12
2023-03-17T04:48:27.343Z,2.35
2023-03-17T04:50:54.705Z,2.53
2023-03-17T04:53:22.397Z,1.92
2023-03-17T04:55:50.419Z,2.37
2023-03-17T04:58:29.805Z,1.33
2023-03-17T05:00:59.047Z,2.05
2023-03-17T05:03:28.490Z,2.25
2023-03-17T05:05:57.702Z,2.42
2023-03-17T05:08:27.301Z,2.10
2023-03-17T05:10:55.989Z,2.65
2023-03-17T05:13:24.419Z,2.95
2023-03-17T05:15:53.540Z,1.12
2023-03-17T05:18:23.947Z,1.55
2023-03-17T05:20:51.673Z,1.85
2023-03-17T05:23:19.098Z,1.20
2023-03-17T05:25:46.913Z,1.27
2023-03-17T05:28:14.995Z,1.60
2023-03-17T05:30:43.127Z,2.95
2023-03-17T05:33:10.555Z,2.30
2023-03-17T05:35:38.390Z,0.90
2023-03-17T05:38:05.790Z,1.75
2023-03-17T05:40:33.436Z,2.05
2023-03-17T05:43:01.847Z,1.98
2023-03-17T05:45:30.499Z,2.12
2023-03-17T05:47:57.984Z,1.60
2023-03-17T05:50:26.349Z,3.08
2023-03-17T05:52:53.741Z,2.37
2023-03-17T05:55:21.248Z,3.78
2023-03-17T05:57:48.909Z,3.17
2023-03-17T06:00:16.823Z,2.87
2023-03-17T06:02:44.652Z,3.17
2023-03-17T06:05:12.377Z,3.78
2023-03-17T06:07:51.638Z,4.12
2023-03-17T06:10:20.912Z,3.37
2023-03-17T06:12:48.445Z,3.92
2023-03-17T06:15:17.065Z,4.03
2023-03-17T06:17:44.792Z,4.75
2023-03-17T06:20:13.157Z,5.10
2023-03-17T06:22:55.223Z,4.93
2023-03-17T06:25:28.448Z,4.53
2023-03-17T06:27:56.249Z,5.47
2023-03-17T06:30:23.711Z,5.82
2023-03-17T06:32:51.402Z,5.10
2023-03-17T06:35:18.998Z,3.85
2023-03-17T06:37:46.770Z,6.45
2023-03-17T06:40:16.227Z,3.53
2023-03-17T06:42:43.896Z,4.22
2023-03-17T06:45:12.059Z,3.72
2023-03-17T06:47:40.064Z,4.40
2023-03-17T06:50:09.724Z,4.00
2023-03-17T06:52:37.901Z,4.15
2023-03-17T06:55:06.291Z,2.45
2023-03-17T06:57:33.706Z,4.22
2023-03-17T07:00:01.179Z,3.25
2023-03-17T07:02:28.849Z,2.50
2023-03-17T07:04:58.176Z,2.45
2023-03-17T07:07:25.698Z,2.30
2023-03-17T07:09:54.063Z,3.92
2023-03-17T07:12:21.975Z,2.55
2023-03-17T07:14:49.465Z,3.58
2023-03-17T07:17:17.196Z,2.20
2023-03-17T07:19:44.698Z,3.22
2023-03-17T07:22:12.357Z,3.25
2023-03-17T07:24:41.899Z,2.58
2023-03-17T07:27:09.900Z,3.00
2023-03-17T07:29:37.511Z,2.67
2023-03-17T07:32:07.335Z,2.65
2023-03-17T07:34:35.769Z,2.80
2023-03-17T07:37:03.504Z,2.58
2023-03-17T07:39:31.332Z,3.00
2023-03-17T07:41:58.802Z,4.70
2023-03-17T07:44:27.530Z,2.72
2023-03-17T07:46:55.484Z,2.55
2023-03-17T07:49:39.969Z,2.75
2023-03-17T07:52:09.770Z,2.35
2023-03-17T07:54:37.773Z,2.40
2023-03-17T07:57:06.367Z,3.10
2023-03-17T07:59:34.088Z,3.60
2023-03-17T08:02:01.840Z,3.37
2023-03-17T08:04:29.634Z,5.05
2023-03-17T08:06:57.684Z,6.00
2023-03-17T08:09:25.651Z,3.22
2023-03-17T08:11:53.445Z,5.30
2023-03-17T08:14:21.317Z,4.05
2023-03-17T08:16:48.808Z,3.50
2023-03-17T08:19:16.599Z,4.10
2023-03-17T08:21:44.081Z,4.00
2023-03-17T08:24:11.919Z,4.65
2023-03-17T08:26:39.713Z,3.55
2023-03-17T08:29:08.194Z,2.62
2023-03-17T08:31:35.812Z,3.40
2023-03-17T08:34:04.453Z,3.22
2023-03-17T08:36:31.913Z,2.83
2023-03-17T08:38:59.422Z,2.87
2023-03-17T08:41:28.297Z,2.45
2023-03-17T08:43:56.104Z,2.40
2023-03-17T08:46:31.588Z,2.72
2023-03-17T08:48:59.912Z,2.22
2023-03-17T08:51:31.715Z,2.30
2023-03-17T08:53:59.751Z,2.83
2023-03-17T08:56:27.840Z,2.53
2023-03-17T08:58:55.770Z,2.60
2023-03-17T09:01:24.578Z,3.35
2023-03-17T09:03:53.602Z,1.80
2023-03-17T09:06:22.524Z,3.33
2023-03-17T09:08:55.339Z,1.35
2023-03-17T09:11:28.919Z,1.73
2023-03-17T09:13:56.745Z,3.53
2023-03-17T09:16:25.331Z,2.50
2023-03-17T09:18:52.936Z,2.28
2023-03-17T09:21:21.224Z,2.67
2023-03-17T09:23:48.790Z,2.85
2023-03-17T09:26:16.422Z,2.47
2023-03-17T09:28:44.768Z,2.10
2023-03-17T09:31:12.520Z,1.90
2023-03-17T09:33:40.746Z,2.08
2023-03-17T09:36:09.960Z,2.45
2023-03-17T09:38:38.004Z,1.98
2023-03-17T09:41:20.730Z,2.28
2023-03-17T09:44:07.002Z,2.85
2023-03-17T09:46:40.793Z,2.37
2023-03-17T09:49:12.224Z,2.00
2023-03-17T09:51:39.801Z,2.05
2023-03-17T09:54:28.304Z,1.83
2023-03-17T09:57:10.856Z,2.53
2023-03-17T09:59:47.453Z,2.22
2023-03-17T10:02:22.968Z,1.95
2023-03-17T10:04:51.737Z,2.55
2023-03-17T10:07:37.322Z,2.10
2023-03-17T10:12:55.897Z,3.05
2023-03-17T10:15:32.397Z,3.28
2023-03-17T10:18:00.160Z,3.08
2023-03-17T10:20:30.781Z,3.30
2023-03-17T10:23:01.709Z,3.00
2023-03-17T10:25:32.762Z,2.22
2023-03-17T10:28:18.953Z,2.67
2023-03-17T10:30:46.594Z,4.07
2023-03-17T10:33:14.168Z,4.22
2023-03-17T10:35:45.148Z,2.20
2023-03-17T10:38:17.881Z,2.47
2023-03-17T10:40:48.039Z,3.10
2023-03-17T10:43:20.598Z,2.55
2023-03-17T10:46:03.087Z,2.40
2023-03-17T10:48:36.244Z,2.70
2023-03-17T10:51:11.073Z,2.47
2023-03-17T10:53:43.840Z,2.30
2023-03-17T10:56:21.212Z,1.92
2023-03-17T10:58:50.653Z,2.53
2023-03-17T11:01:22.837Z,2.62
2023-03-17T11:03:50.900Z,2.45
2023-03-17T11:06:20.493Z,2.80
2023-03-17T11:08:50.587Z,2.67
2023-03-17T11:11:34.610Z,2.45
2023-03-17T11:14:06.102Z,2.55
2023-03-17T11:16:37.747Z,2.25
2023-03-17T11:19:10.170Z,3.35
2023-03-17T11:21:54.543Z,2.55
2023-03-17T11:24:31.462Z,2.83
2023-03-17T11:27:06.225Z,2.75
2023-03-17T11:29:37.359Z,2.53
2023-03-17T11:32:29.668Z,3.37
2023-03-17T11:35:28.414Z,3.17
2023-03-17T11:38:11.681Z,2.25
2023-03-17T11:40:51.558Z,2.62
2023-03-17T11:43:43.942Z,3.37
2023-03-17T11:46:16.977Z,2.15
2023-03-17T11:49:00.645Z,3.90
2023-03-17T11:51:33.620Z,3.35
2023-03-17T11:54:19.347Z,2.08
2023-03-17T11:56:51.883Z,1.95
2023-03-17T11:59:52.467Z,2.35
2023-03-17T12:02:36.960Z,2.62
2023-03-17T12:05:10.970Z,2.33
2023-03-17T12:07:42.401Z,1.92
2023-03-17T12:10:23.452Z,2.72
2023-03-17T12:12:54.914Z,2.62
2023-03-17T12:15:30.296Z,2.05
2023-03-17T12:20:34.079Z,2.12
2023-03-17T12:23:07.430Z,2.47
2023-03-17T12:25:51.240Z,2.25
2023-03-17T12:28:27.783Z,2.08
2023-03-17T12:31:04.121Z,2.05
2023-03-17T12:33:38.423Z,2.30
2023-03-17T12:36:09.068Z,2.83
2023-03-17T12:38:47.115Z,2.10
2023-03-17T12:41:49.127Z,2.37
2023-03-17T12:44:44.791Z,2.40
2023-03-17T12:47:24.385Z,2.25
2023-03-17T12:50:29.840Z,2.20
2023-03-17T12:53:26.683Z,2.30
2023-03-17T12:55:58.556Z,2.20
2023-03-17T12:58:31.349Z,2.95
2023-03-17T13:01:09.314Z,2.53
2023-03-17T13:03:47.081Z,2.65
2023-03-17T13:06:19.135Z,1.87
2023-03-17T13:08:50.376Z,2.50
2023-03-17T13:11:27.227Z,2.65
2023-03-17T13:13:54.852Z,1.95
2023-03-17T13:16:39.258Z,2.40
2023-03-17T13:19:20.849Z,3.25
2023-03-17T13:22:00.646Z,2.05
2023-03-17T13:24:42.409Z,1.77
2023-03-17T13:27:12.263Z,2.10
2023-03-17T13:29:43.581Z,2.70
2023-03-17T13:32:17.069Z,2.55
2023-03-17T13:35:01.198Z,2.40
2023-03-17T13:37:31.154Z,2.47
2023-03-17T13:40:10.716Z,2.45
2023-03-17T13:42:50.700Z,1.70
2023-03-17T13:45:39.305Z,3.65
2023-03-17T13:48:36.387Z,2.37
2023-03-17T13:51:24.131Z,2.17
2023-03-17T13:53:59.043Z,2.42
2023-03-17T13:56:36.561Z,3.47
2023-03-17T13:59:05.373Z,2.40
2023-03-17T14:01:43.075Z,2.12
2023-03-17T14:04:20.408Z,2.60
2023-03-17T14:06:50.765Z,3.30
2023-03-17T14:09:25.425Z,2.25
2023-03-17T14:11:53.593Z,1.83
2023-03-17T14:15:07.620Z,3.10
2023-03-17T14:17:41.836Z,2.30
2023-03-17T14:20:15.645Z,2.35
2023-03-17T14:22:46.007Z,2.15
2023-03-17T14:25:17.142Z,2.45
2023-03-17T14:27:47.549Z,2.85
2023-03-17T14:30:21.683Z,2.25
2023-03-17T14:32:58.993Z,1.87
2023-03-17T14:35:33.794Z,1.67
2023-03-17T14:38:01.966Z,1.70
2023-03-17T14:40:32.392Z,2.55
2023-03-17T14:42:59.796Z,2.53
2023-03-17T14:45:53.031Z,2.20
2023-03-17T14:48:27.363Z,2.25
2023-03-17T14:50:56.819Z,2.30
2023-03-17T14:53:25.172Z,2.65
2023-03-17T14:55:53.110Z,1.95
2023-03-17T14:58:37.183Z,2.70
2023-03-17T15:01:20.984Z,2.37
2023-03-17T15:03:57.127Z,2.33
2023-03-17T15:06:30.535Z,1.90
2023-03-17T15:08:59.653Z,2.08
2023-03-17T15:11:36.362Z,3.00
2023-03-17T15:14:12.772Z,2.37
2023-03-17T15:16:45.844Z,3.67
2023-03-17T15:19:46.382Z,2.55
2023-03-17T15:22:32.039Z,2.20
2023-03-17T15:25:22.074Z,2.47
2023-03-17T15:27:49.819Z,2.25
2023-03-17T15:30:18.026Z,2.53
2023-03-17T15:32:51.819Z,2.22
2023-03-17T15:35:19.867Z,2.53
2023-03-17T15:37:47.519Z,2.08
2023-03-17T15:40:15.712Z,2.30
2023-03-17T15:42:43.481Z,2.00
2023-03-17T15:45:14.939Z,2.35
2023-03-17T15:47:44.250Z,2.85
2023-03-17T15:50:29.331Z,2.22
2023-03-17T15:52:57.885Z,1.95
2023-03-17T15:55:30.840Z,2.30
2023-03-17T15:57:59.142Z,2.80
2023-03-17T16:00:29.563Z,2.78
2023-03-17T16:03:06.568Z,2.95
2023-03-17T16:05:35.359Z,2.30
2023-03-17T16:08:03.155Z,2.83
2023-03-17T16:10:32.555Z,2.90
2023-03-17T16:13:00.410Z,1.98
2023-03-17T16:15:31.280Z,2.25
2023-03-17T16:18:01.638Z,2.62
2023-03-17T16:20:44.323Z,2.17
2023-03-17T16:23:17.473Z,2.85
2023-03-17T16:25:46.242Z,3.12
2023-03-17T16:28:17.912Z,2.80
2023-03-17T16:30:46.478Z,3.35
2023-03-17T16:33:23.697Z,2.47
2023-03-17T16:35:53.341Z,3.50
2023-03-17T16:38:24.668Z,3.87
2023-03-17T16:40:54.184Z,2.45
2023-03-17T16:43:33.585Z,4.82
2023-03-17T16:46:03.016Z,3.62
2023-03-17T16:48:31.169Z,5.07
2023-03-17T16:50:58.600Z,4.32
2023-03-17T16:53:26.492Z,4.80
2023-03-17T16:55:54.546Z,3.83
2023-03-17T16:58:24.844Z,4.65
2023-03-17T17:01:02.127Z,5.32
2023-03-17T17:03:31.145Z,5.05
2023-03-17T17:06:00.050Z,6.30
2023-03-17T17:08:27.499Z,5.62
2023-03-17T17:10:54.918Z,7.62
2023-03-17T17:13:22.838Z,5.87
2023-03-17T17:15:50.298Z,7.65
2023-03-17T17:18:24.635Z,8.32
2023-03-17T17:20:53.690Z,5.47
2023-03-17T17:23:26.084Z,5.87
2023-03-17T17:25:54.496Z,5.68
2023-03-17T17:28:23.971Z,4.93
2023-03-17T17:30:52.089Z,5.25
2023-03-17T17:33:20.371Z,4.68
2023-03-17T17:35:49.101Z,6.35
2023-03-17T17:38:28.951Z,6.25
2023-03-17T17:40:58.376Z,7.07
2023-03-17T17:43:26.191Z,5.43
2023-03-17T17:45:54.551Z,4.93
2023-03-17T17:48:24.370Z,6.57
2023-03-17T17:50:52.985Z,6.65
2023-03-17T17:53:20.745Z,7.72
2023-03-17T17:55:49.600Z,7.32
2023-03-17T17:58:19.474Z,5.93
2023-03-17T18:00:46.992Z,6.72
2023-03-17T18:03:15.053Z,7.00
2023-03-17T18:05:42.905Z,8.30
2023-03-17T18:08:13.429Z,8.23
2023-03-17T18:10:41.380Z,7.57
2023-03-17T18:13:09.603Z,6.50
2023-03-17T18:15:37.191Z,7.90
2023-03-17T18:18:05.772Z,7.87
2023-03-17T18:20:33.609Z,10.18
2023-03-17T18:23:01.488Z,8.98
2023-03-17T18:25:29.853Z,8.10
2023-03-17T18:27:57.466Z,11.10
2023-03-17T18:30:27.805Z,11.18
2023-03-17T18:32:58.420Z,10.15
2023-03-17T18:35:27.661Z,32.83
2023-03-17T18:37:57.315Z,21.77
2023-03-17T18:40:26.150Z,15.32
2023-03-17T18:42:53.817Z,16.00
2023-03-17T18:45:21.783Z,16.17
2023-03-17T18:47:49.229Z,14.13
2023-03-17T18:50:17.601Z,10.85
2023-03-17T18:52:45.952Z,10.05
2023-03-17T18:55:15.151Z,11.32
2023-03-17T18:57:44.778Z,8.35
2023-03-17T19:00:14.590Z,7.53
2023-03-17T19:02:42.158Z,7.85
2023-03-17T19:05:10.108Z,6.35
2023-03-17T19:07:40.183Z,6.50
2023-03-17T19:10:09.854Z,6.80
2023-03-17T19:12:37.628Z,9.02
2023-03-17T19:15:06.696Z,7.72
2023-03-17T19:17:34.710Z,7.00
2023-03-17T19:20:02.837Z,6.22
2023-03-17T19:22:30.497Z,6.68
2023-03-17T19:24:58.036Z,7.78
2023-03-17T19:27:25.913Z,8.90
2023-03-17T19:29:53.859Z,8.43
2023-03-17T19:32:21.291Z,6.10
2023-03-17T19:34:48.780Z,6.60
2023-03-17T19:37:16.875Z,6.18
2023-03-17T19:39:44.990Z,7.95
2023-03-17T19:42:12.677Z,6.70
2023-03-17T19:44:40.643Z,7.10
2023-03-17T19:47:08.500Z,8.13
2023-03-17T19:49:37.637Z,6.20
2023-03-17T19:52:06.570Z,7.50
2023-03-17T19:54:34.920Z,7.20
2023-03-17T19:57:02.370Z,11.63
2023-03-17T19:59:30.464Z,6.97
2023-03-17T20:01:58.529Z,9.23
2023-03-17T20:04:26.447Z,7.62
2023-03-17T20:06:55.730Z,11.93
2023-03-17T20:09:24.767Z,10.52
2023-03-17T20:11:56.523Z,7.72
2023-03-17T20:14:23.990Z,7.30
2023-03-17T20:16:51.943Z,9.93
2023-03-17T20:19:20.080Z,10.50
2023-03-17T20:21:47.851Z,10.98
2023-03-17T20:24:15.563Z,9.65
2023-03-17T20:26:44.681Z,10.57
2023-03-17T20:29:16.190Z,9.65
2023-03-17T20:31:44.197Z,8.75
2023-03-17T20:34:11.758Z,7.07
2023-03-17T20:36:42.405Z,9.38
2023-03-17T20:39:14.838Z,8.43
2023-03-17T20:41:42.430Z,7.40
2023-03-17T20:44:10.094Z,8.15
2023-03-17T20:46:38.925Z,5.68
2023-03-17T20:49:07.454Z,6.28
2023-03-17T20:51:35.595Z,7.03
2023-03-17T20:54:03.553Z,5.25
2023-03-17T20:56:33.772Z,5.12
2023-03-17T20:59:04.913Z,5.93
2023-03-17T21:01:34.828Z,4.10
2023-03-17T21:04:06.447Z,9.48
2023-03-17T21:06:34.289Z,7.15
2023-03-17T21:09:02.436Z,7.93
2023-03-17T21:11:30.713Z,9.77
2023-03-17T21:13:58.616Z,8.30
2023-03-17T21:16:28.408Z,7.00
2023-03-17T21:18:56.196Z,6.40
2023-03-17T21:21:24.755Z,10.32
2023-03-17T21:23:52.787Z,10.07
2023-03-17T21:26:20.624Z,12.82
2023-03-17T21:28:48.739Z,7.62
2023-03-17T21:31:17.304Z,10.10
2023-03-17T21:33:44.937Z,18.17
2023-03-17T21:36:12.654Z,15.95
2023-03-17T21:38:40.523Z,8.27
2023-03-17T21:41:33.725Z,13.23
2023-03-17T21:44:02.628Z,10.88
2023-03-17T21:46:31.691Z,28.42
2023-03-17T21:48:59.173Z,14.45
2023-03-17T21:51:27.348Z,15.63
2023-03-17T21:53:54.714Z,8.52
2023-03-17T21:56:22.129Z,6.53
2023-03-17T21:58:50.236Z,5.05
2023-03-17T22:01:18.491Z,4.93
2023-03-17T22:03:46.197Z,6.95
2023-03-17T22:06:14.992Z,5.43
2023-03-17T22:08:42.947Z,7.62
2023-03-17T22:11:13.250Z,5.85
2023-03-17T22:13:41.433Z,3.47
2023-03-17T22:16:10.018Z,8.55
2023-03-17T22:18:38.170Z,8.15
2023-03-17T22:21:06.263Z,9.50
2023-03-17T22:23:39.630Z,8.20
2023-03-17T22:26:13.317Z,8.23
2023-03-17T22:28:41.455Z,9.40
2023-03-17T22:31:18.087Z,7.28
2023-03-17T22:33:46.831Z,4.62
2023-03-17T22:36:15.383Z,4.60
2023-03-17T22:38:42.791Z,4.80
2023-03-17T22:41:16.020Z,2.97
2023-03-17T22:43:44.244Z,2.92
2023-03-17T22:46:11.894Z,3.50
2023-03-17T22:48:40.430Z,3.35
2023-03-17T22:51:11.578Z,4.00
2023-03-17T22:53:39.780Z,4.18
2023-03-17T22:56:08.287Z,5.00
2023-03-17T22:58:36.064Z,4.43
2023-03-17T23:01:05.687Z,4.62
2023-03-17T23:03:33.965Z,5.35
2023-03-17T23:06:03.851Z,3.28
2023-03-17T23:08:35.030Z,4.82
2023-03-17T23:11:08.694Z,3.95
2023-03-17T23:13:36.485Z,5.50
2023-03-17T23:16:04.721Z,4.62
2023-03-17T23:18:32.293Z,4.10
2023-03-17T23:21:00.142Z,6.00
2023-03-17T23:23:27.979Z,5.05
2023-03-17T23:25:55.397Z,4.62
2023-03-17T23:28:23.223Z,3.60
2023-03-17T23:30:51.960Z,4.97
2023-03-17T23:33:21.594Z,3.33
2023-03-17T23:35:50.309Z,3.22
2023-03-17T23:38:19.556Z,3.37
2023-03-17T23:40:48.116Z,4.32
2023-03-17T23:43:15.523Z,4.70
2023-03-17T23:45:43.327Z,5.30
2023-03-17T23:48:11.786Z,5.00
2023-03-17T23:50:39.941Z,3.95
2023-03-17T23:53:07.627Z,5.37
2023-03-17T23:55:35.694Z,5.07
2023-03-17T23:58:03.398Z,6.28
